Time;durP1;ratioP1;P1;durP2;ratioP2;P2;SDS_P1;SDS_P2;PMS_P1;PMS_P2;Temp;Humidity;BMP_temperature;BMP_pressure;BME280_temperature;BME280_humidity;BME280_pressure;Samples;Min_cycle;Max_cycle;Signal;HPM_P1;HPM_P2
2023/05/14 00:00:43;;;;;;;10.35;5.53;;;13.80;99.90;;;;;;5094508;28;20027;-70
2023/05/14 00:03:24;;;;;;;12.38;5.07;;;13.80;99.90;;;;;;5094345;28;20063;-71
2023/05/14 00:05:52;;;;;;;11.48;5.38;;;13.80;99.90;;;;;;5093913;28;20035;-74
2023/05/14 00:08:21;;;;;;;10.50;4.78;;;13.70;99.90;;;;;;5096274;28;20040;-71
2023/05/14 00:10:47;;;;;;;13.55;5.70;;;13.70;99.90;;;;;;5096878;28;20848;-70
2023/05/14 00:13:12;;;;;;;15.70;6.25;;;13.70;99.90;;;;;;5099106;27;20070;-72
2023/05/14 00:15:44;;;;;;;16.42;5.75;;;13.70;99.90;;;;;;5100797;28;20024;-71
2023/05/14 00:18:16;;;;;;;15.02;5.93;;;13.70;99.90;;;;;;5098606;28;20655;-70
2023/05/14 00:20:41;;;;;;;12.43;5.18;;;13.70;99.90;;;;;;5096865;28;20020;-71
2023/05/14 00:23:07;;;;;;;9.55;4.43;;;13.70;99.90;;;;;;5097486;27;20180;-71
2023/05/14 00:25:32;;;;;;;15.60;4.72;;;13.70;99.90;;;;;;5101526;28;20032;-71
2023/05/14 00:28:01;;;;;;;8.38;4.88;;;13.60;99.90;;;;;;5095352;28;20028;-70
2023/05/14 00:30:27;;;;;;;17.73;6.07;;;13.60;99.90;;;;;;5091824;28;20032;-73
2023/05/14 00:32:53;;;;;;;13.50;4.80;;;13.60;99.90;;;;;;5099409;28;20031;-70
2023/05/14 00:35:20;;;;;;;17.23;5.47;;;13.60;99.90;;;;;;5100218;28;20046;-71
2023/05/14 00:37:51;;;;;;;10.65;4.75;;;13.60;99.90;;;;;;5097092;28;20515;-71
2023/05/14 00:40:24;;;;;;;22.83;5.40;;;13.60;99.90;;;;;;5096800;28;20025;-72
2023/05/14 00:42:50;;;;;;;16.40;5.82;;;13.60;99.90;;;;;;5098281;28;20403;-75
2023/05/14 00:45:18;;;;;;;12.98;4.72;;;13.50;99.90;;;;;;5100403;27;20028;-71
2023/05/14 00:47:44;;;;;;;11.38;5.90;;;13.50;99.90;;;;;;5101066;28;20038;-73
2023/05/14 00:50:10;;;;;;;18.25;5.45;;;13.50;99.90;;;;;;5096575;28;20040;-71
2023/05/14 00:52:39;;;;;;;14.30;5.10;;;13.40;99.90;;;;;;5098622;28;20039;-71
2023/05/14 00:55:06;;;;;;;13.02;5.43;;;13.40;99.90;;;;;;5097465;28;20437;-71
2023/05/14 00:57:33;;;;;;;12.57;4.90;;;13.40;99.90;;;;;;5098350;28;20032;-71
2023/05/14 00:59:59;;;;;;;12.25;4.75;;;13.30;99.90;;;;;;5097814;28;20023;-71
2023/05/14 01:02:28;;;;;;;12.52;5.70;;;13.30;99.90;;;;;;5091360;28;20044;-71
2023/05/14 01:04:54;;;;;;;16.55;5.13;;;13.30;99.90;;;;;;5082453;28;20046;-72
2023/05/14 01:07:45;;;;;;;12.18;5.65;;;13.30;99.90;;;;;;5088028;28;20044;-71
2023/05/14 01:10:26;;;;;;;11.68;5.40;;;13.30;99.90;;;;;;5085357;28;20036;-71
2023/05/14 01:12:56;;;;;;;12.15;5.35;;;13.30;99.90;;;;;;5082216;28;20028;-74
2023/05/14 01:15:30;;;;;;;11.02;5.10;;;13.20;99.90;;;;;;5087980;28;20111;-71
2023/05/14 01:18:01;;;;;;;13.00;5.72;;;13.20;99.90;;;;;;5083639;28;20120;-72
2023/05/14 01:20:33;;;;;;;13.48;5.70;;;13.20;99.90;;;;;;5095599;28;20032;-71
2023/05/14 01:22:58;;;;;;;9.40;5.25;;;13.10;99.90;;;;;;5097210;28;20051;-72
2023/05/14 01:25:28;;;;;;;11.13;5.10;;;13.10;99.90;;;;;;5089574;28;20075;-72
2023/05/14 01:28:27;;;;;;;11.68;5.05;;;13.10;99.90;;;;;;5083383;28;20032;-73
2023/05/14 01:31:05;;;;;;;14.52;5.20;;;13.10;99.90;;;;;;5084930;28;20025;-71
2023/05/14 01:33:34;;;;;;;12.30;5.72;;;13.10;99.90;;;;;;5094917;28;20043;-71
2023/05/14 01:36:00;;;;;;;14.32;5.03;;;13.10;99.90;;;;;;5088346;28;20028;-70
2023/05/14 01:38:29;;;;;;;11.77;5.03;;;13.10;99.90;;;;;;5094948;28;20066;-71
2023/05/14 01:40:56;;;;;;;17.20;5.43;;;13.10;99.90;;;;;;5097523;28;20028;-71
2023/05/14 01:43:22;;;;;;;14.48;5.63;;;13.10;99.90;;;;;;5094861;28;20024;-71
2023/05/14 01:45:47;;;;;;;13.32;5.65;;;13.00;99.90;;;;;;5098070;28;20051;-70
2023/05/14 01:48:14;;;;;;;9.80;4.63;;;13.00;99.90;;;;;;5095928;28;21727;-71
2023/05/14 01:50:42;;;;;;;10.93;4.78;;;13.00;99.90;;;;;;5093131;28;20055;-72
2023/05/14 01:53:08;;;;;;;10.90;4.40;;;13.00;99.90;;;;;;5091836;28;20484;-73
2023/05/14 01:55:39;;;;;;;16.77;5.30;;;12.90;99.90;;;;;;5089442;28;20126;-71
2023/05/14 01:58:08;;;;;;;11.55;5.38;;;13.00;99.90;;;;;;5088302;28;20032;-71
2023/05/14 02:00:43;;;;;;;12.68;5.13;;;12.90;99.90;;;;;;5093043;28;20095;-71
2023/05/14 02:03:08;;;;;;;13.20;5.07;;;12.90;99.90;;;;;;5096088;28;20058;-71
2023/05/14 02:05:34;;;;;;;11.25;5.38;;;12.90;99.90;;;;;;5089683;28;20512;-71
2023/05/14 02:08:14;;;;;;;11.15;4.80;;;12.90;99.90;;;;;;5090062;28;20117;-71
2023/05/14 02:10:43;;;;;;;;;;;12.90;99.90;;;;;;5096666;28;20157;-71
2023/05/14 02:13:08;;;;;;;9.85;4.50;;;12.90;99.90;;;;;;5094037;28;20006;-71
2023/05/14 02:15:34;;;;;;;10.07;4.90;;;12.90;99.90;;;;;;5093218;28;20199;-72
2023/05/14 02:17:59;;;;;;;13.57;4.82;;;12.90;99.90;;;;;;5094513;28;20423;-71
2023/05/14 02:20:28;;;;;;;11.65;5.00;;;12.90;99.90;;;;;;5093508;28;20036;-71
2023/05/14 02:22:53;;;;;;;16.08;5.50;;;12.90;99.90;;;;;;5096688;28;20228;-71
2023/05/14 02:25:22;;;;;;;11.40;4.68;;;12.90;99.90;;;;;;5091638;28;20126;-72
2023/05/14 02:27:48;;;;;;;10.68;5.07;;;12.90;99.90;;;;;;5087850;28;20047;-72
2023/05/14 02:30:14;;;;;;;10.13;5.00;;;12.90;99.90;;;;;;5093912;28;20024;-71
2023/05/14 02:32:39;;;;;;;13.15;5.95;;;12.90;99.90;;;;;;5093102;28;20032;-71
2023/05/14 02:35:08;;;;;;;12.30;4.78;;;12.80;99.90;;;;;;5090665;28;20027;-70
2023/05/14 02:37:34;;;;;;;12.43;5.35;;;12.80;99.90;;;;;;5092275;28;20405;-71
2023/05/14 02:39:59;;;;;;;8.77;4.68;;;12.80;99.90;;;;;;5093892;28;20032;-70
2023/05/14 02:42:25;;;;;;;9.98;5.32;;;12.80;99.90;;;;;;5094689;28;20112;-71
2023/05/14 02:44:51;;;;;;;15.45;5.05;;;12.80;99.90;;;;;;5096882;28;20505;-71
2023/05/14 02:47:20;;;;;;;12.20;4.90;;;12.80;99.90;;;;;;5095715;28;20044;-71
2023/05/14 02:49:45;;;;;;;12.82;5.22;;;12.70;99.90;;;;;;5093512;28;20025;-71
2023/05/14 02:52:17;;;;;;;12.80;5.03;;;12.70;99.90;;;;;;5089565;28;20028;-71
2023/05/14 02:54:42;;;;;;;12.40;5.13;;;12.70;99.90;;;;;;5093348;28;20024;-72
2023/05/14 02:57:11;;;;;;;11.93;5.55;;;12.70;99.90;;;;;;5091890;28;20042;-71
2023/05/14 02:59:40;;;;;;;15.35;4.78;;;12.60;99.90;;;;;;5096162;28;20024;-73
2023/05/14 03:02:09;;;;;;;12.85;5.30;;;12.60;99.90;;;;;;5093816;28;20039;-71
2023/05/14 03:04:34;;;;;;;15.30;5.20;;;12.60;99.90;;;;;;5095639;28;20032;-71
2023/05/14 03:07:00;;;;;;;11.93;5.38;;;12.60;99.90;;;;;;5094615;28;20057;-71
2023/05/14 03:09:25;;;;;;;11.93;5.03;;;12.60;99.90;;;;;;5093315;28;20631;-70
2023/05/14 03:11:51;;;;;;;10.90;5.60;;;12.60;99.90;;;;;;5095837;28;20040;-73
2023/05/14 03:14:19;;;;;;;12.40;5.40;;;12.60;99.90;;;;;;5090845;28;20024;-71
2023/05/14 03:16:45;;;;;;;17.65;5.55;;;12.60;99.90;;;;;;5087494;28;20067;-71
2023/05/14 03:19:10;;;;;;;15.20;5.43;;;12.60;99.90;;;;;;5094259;28;20039;-71
2023/05/14 03:21:36;;;;;;;10.18;4.82;;;12.50;99.90;;;;;;5099489;28;20036;-71
2023/05/14 03:24:01;;;;;;;11.50;5.72;;;12.50;99.90;;;;;;5096950;28;20038;-71
2023/05/14 03:26:27;;;;;;;11.70;6.30;;;12.50;99.90;;;;;;5095974;28;20053;-71
2023/05/14 03:28:53;;;;;;;13.60;5.43;;;12.60;99.90;;;;;;5093308;28;20127;-71
2023/05/14 03:31:19;;;;;;;10.90;5.43;;;12.60;99.90;;;;;;5093623;28;20039;-71
2023/05/14 03:33:47;;;;;;;15.52;6.47;;;12.60;99.90;;;;;;5091966;28;20032;-71
2023/05/14 03:36:12;;;;;;;19.70;5.18;;;12.70;99.90;;;;;;5093001;28;20430;-71
2023/05/14 03:38:38;;;;;;;10.57;5.50;;;12.70;99.90;;;;;;5098558;28;20028;-73
2023/05/14 03:41:04;;;;;;;12.60;5.18;;;12.70;99.90;;;;;;5099856;28;20403;-71
2023/05/14 03:43:29;;;;;;;11.45;4.80;;;12.70;99.90;;;;;;5095754;28;20039;-72
2023/05/14 03:45:55;;;;;;;11.07;4.80;;;12.70;99.90;;;;;;5096528;28;20055;-70
2023/05/14 03:48:20;;;;;;;17.13;5.13;;;12.70;99.90;;;;;;5097586;28;20035;-71
2023/05/14 03:50:46;;;;;;;12.43;5.45;;;12.70;99.90;;;;;;5092363;28;20032;-71
2023/05/14 03:53:12;;;;;;;12.18;5.25;;;12.60;99.90;;;;;;5097400;28;20135;-71
2023/05/14 03:55:37;;;;;;;10.88;5.15;;;12.60;99.90;;;;;;5101752;28;20568;-71
2023/05/14 03:58:06;;;;;;;13.30;5.10;;;12.60;99.90;;;;;;5099579;28;20043;-72
2023/05/14 04:00:32;;;;;;;13.65;6.47;;;12.60;99.90;;;;;;5101024;28;20064;-71
2023/05/14 04:02:57;;;;;;;14.80;5.43;;;12.50;99.90;;;;;;5098239;28;20120;-71
2023/05/14 04:05:23;;;;;;;16.10;4.93;;;12.50;99.90;;;;;;5100136;28;20071;-71
2023/05/14 04:07:49;;;;;;;13.27;5.95;;;12.50;99.90;;;;;;5102568;28;20415;-72
2023/05/14 04:10:14;;;;;;;12.35;5.50;;;12.50;99.90;;;;;;5097972;28;20119;-72
2023/05/14 04:12:40;;;;;;;11.77;5.63;;;12.50;99.90;;;;;;5100102;28;20407;-72
2023/05/14 04:15:06;;;;;;;17.38;6.55;;;12.50;99.90;;;;;;5097239;28;20415;-71
2023/05/14 04:17:32;;;;;;;11.38;5.63;;;12.50;99.90;;;;;;5099513;28;20555;-71
2023/05/14 04:19:58;;;;;;;10.27;5.00;;;12.50;99.90;;;;;;5097988;28;20103;-71
2023/05/14 04:22:23;;;;;;;14.80;5.57;;;12.50;99.90;;;;;;5099108;28;20082;-71
2023/05/14 04:24:58;;;;;;;14.73;6.20;;;12.60;99.90;;;;;;5099787;28;20848;-71
2023/05/14 04:27:23;;;;;;;12.48;5.70;;;12.60;99.90;;;;;;5098862;28;20043;-71
2023/05/14 04:29:49;;;;;;;10.80;5.13;;;12.70;99.90;;;;;;5099673;28;20407;-72
2023/05/14 04:32:16;;;;;;;10.38;4.97;;;12.70;99.90;;;;;;5095973;28;20031;-71
2023/05/14 04:34:42;;;;;;;19.58;5.88;;;12.70;99.90;;;;;;5097546;28;20032;-70
2023/05/14 04:37:07;;;;;;;13.10;5.22;;;12.70;99.90;;;;;;5100178;27;20024;-70
2023/05/14 04:39:33;;;;;;;9.32;5.15;;;12.70;99.90;;;;;;5094299;28;20198;-72
2023/05/14 04:41:59;;;;;;;14.20;5.80;;;12.80;99.90;;;;;;5098297;28;20036;-71
2023/05/14 04:44:25;;;;;;;17.35;4.97;;;12.80;99.90;;;;;;5089817;28;20511;-71
2023/05/14 04:46:54;;;;;;;12.15;5.72;;;12.90;99.90;;;;;;5096318;28;20032;-72
2023/05/14 04:49:20;;;;;;;16.73;6.65;;;12.90;99.90;;;;;;5095239;28;20504;-71
2023/05/14 04:51:46;;;;;;;13.90;4.82;;;12.90;99.90;;;;;;5101406;28;20038;-71
2023/05/14 04:54:12;;;;;;;9.75;4.78;;;12.90;99.90;;;;;;5095494;28;20541;-71
2023/05/14 04:56:38;;;;;;;10.95;5.18;;;13.00;99.90;;;;;;5100965;28;20031;-71
2023/05/14 04:59:03;;;;;;;10.25;4.78;;;13.10;99.90;;;;;;5094167;28;20039;-71
2023/05/14 05:01:29;;;;;;;11.18;4.78;;;13.10;99.90;;;;;;5098203;28;20039;-72
2023/05/14 05:03:58;;;;;;;8.80;4.88;;;13.10;99.90;;;;;;5094540;28;20034;-71
2023/05/14 05:06:23;;;;;;;11.48;5.03;;;13.10;99.90;;;;;;5097273;27;20043;-71
2023/05/14 05:08:49;;;;;;;15.23;5.68;;;13.10;99.90;;;;;;5097151;27;20057;-71
2023/05/14 05:11:17;;;;;;;10.35;4.35;;;13.20;99.90;;;;;;5096122;28;20096;-71
2023/05/14 05:13:43;;;;;;;10.40;4.25;;;13.30;99.90;;;;;;5096444;28;20028;-71
2023/05/14 05:16:09;;;;;;;10.85;4.18;;;13.30;99.90;;;;;;5096777;28;20028;-70
2023/05/14 05:18:34;;;;;;;7.60;4.40;;;13.40;99.90;;;;;;5098837;28;20027;-72
2023/05/14 05:21:00;;;;;;;7.78;4.00;;;13.40;99.90;;;;;;5095945;28;20364;-71
2023/05/14 05:23:25;;;;;;;7.07;3.92;;;13.50;99.90;;;;;;5097690;28;20089;-71
2023/05/14 05:25:54;;;;;;;6.63;4.00;;;13.50;99.90;;;;;;5099387;28;20052;-72
2023/05/14 05:28:19;;;;;;;7.78;3.72;;;13.60;99.90;;;;;;5096268;28;20036;-71
2023/05/14 05:30:45;;;;;;;8.68;4.35;;;13.60;99.90;;;;;;5098181;28;20034;-72
2023/05/14 05:33:11;;;;;;;11.40;4.55;;;13.60;99.90;;;;;;5093818;27;20446;-71
2023/05/14 05:35:40;;;;;;;10.30;4.53;;;13.60;99.90;;;;;;5091032;28;20058;-70
2023/05/14 05:38:06;;;;;;;9.65;4.97;;;13.70;99.90;;;;;;5093659;28;20032;-72
2023/05/14 05:40:31;;;;;;;10.00;4.57;;;13.70;99.90;;;;;;5094953;28;20108;-72
2023/05/14 05:42:57;;;;;;;9.07;3.97;;;13.80;99.90;;;;;;5099067;28;20122;-71
2023/05/14 05:45:26;;;;;;;9.75;5.07;;;14.00;99.90;;;;;;5094887;28;20063;-77
2023/05/14 05:47:51;;;;;;;8.18;4.50;;;14.20;99.90;;;;;;5096508;28;20038;-71
2023/05/14 05:50:17;;;;;;;8.25;3.90;;;14.20;99.90;;;;;;5097621;28;20114;-71
2023/05/14 05:52:42;;;;;;;8.13;3.38;;;14.30;99.90;;;;;;5098822;28;20036;-71
2023/05/14 05:55:14;;;;;;;8.10;4.13;;;14.50;99.90;;;;;;5094015;28;20032;-72
2023/05/14 05:57:40;;;;;;;9.48;3.97;;;14.50;99.90;;;;;;5092636;28;20040;-71
2023/05/14 06:00:12;;;;;;;11.95;4.10;;;14.50;99.90;;;;;;5096642;28;20399;-70
2023/05/14 06:02:39;;;;;;;8.05;4.07;;;14.50;99.90;;;;;;5095818;28;20633;-71
2023/05/14 06:05:06;;;;;;;7.47;3.35;;;14.50;99.90;;;;;;5090653;28;20036;-71
2023/05/14 06:07:31;;;;;;;7.25;4.10;;;14.50;99.90;;;;;;5099850;28;20043;-71
2023/05/14 06:09:57;;;;;;;8.85;3.83;;;14.60;99.90;;;;;;5093632;28;20048;-73
2023/05/14 06:12:26;;;;;;;10.57;4.10;;;14.50;99.90;;;;;;5091329;28;20036;-71
2023/05/14 06:14:56;;;;;;;12.30;4.30;;;14.70;99.90;;;;;;5096290;28;20040;-71
2023/05/14 06:17:25;;;;;;;8.40;3.90;;;14.60;99.90;;;;;;5095229;28;20039;-72
2023/05/14 06:19:51;;;;;;;14.10;4.35;;;14.50;99.90;;;;;;5097522;28;20047;-71
2023/05/14 06:22:17;;;;;;;9.68;3.90;;;14.40;99.90;;;;;;5095807;28;20028;-71
2023/05/14 06:24:43;;;;;;;8.55;4.25;;;14.40;99.90;;;;;;5095227;28;20115;-71
2023/05/14 06:27:14;;;;;;;10.23;4.07;;;14.30;99.90;;;;;;5096528;27;20031;-71
2023/05/14 06:29:40;;;;;;;9.10;4.47;;;14.40;99.90;;;;;;5094732;28;20044;-71
2023/05/14 06:32:06;;;;;;;15.73;3.97;;;14.30;99.90;;;;;;5096798;28;20028;-71
2023/05/14 06:34:35;;;;;;;9.50;3.85;;;14.30;99.90;;;;;;5093627;28;20028;-71
2023/05/14 06:37:02;;;;;;;10.55;4.20;;;14.50;99.90;;;;;;5092463;28;20038;-71
2023/05/14 06:39:28;;;;;;;9.90;4.15;;;14.70;99.90;;;;;;5096146;28;20139;-71
2023/05/14 06:41:54;;;;;;;13.63;4.32;;;14.80;99.90;;;;;;5092946;28;20451;-73
2023/05/14 06:44:19;;;;;;;8.68;4.22;;;14.90;99.90;;;;;;5086525;28;20164;-72
2023/05/14 06:46:45;;;;;;;12.95;5.20;;;15.10;99.90;;;;;;5089538;28;20032;-72
2023/05/14 06:49:10;;;;;;;10.75;5.55;;;15.10;99.90;;;;;;5092156;28;20023;-71
2023/05/14 06:51:37;;;;;;;11.93;4.82;;;15.30;99.90;;;;;;5086935;28;20055;-71
2023/05/14 06:54:03;;;;;;;7.00;4.00;;;15.40;99.90;;;;;;5080734;28;20469;-75
2023/05/14 06:56:29;;;;;;;9.27;3.78;;;15.40;99.90;;;;;;5085470;28;20116;-72
2023/05/14 06:58:54;;;;;;;8.95;4.25;;;15.50;99.90;;;;;;5084687;28;20056;-71
2023/05/14 07:01:23;;;;;;;13.60;4.00;;;15.60;99.90;;;;;;5087132;28;20526;-72
2023/05/14 07:03:48;;;;;;;6.53;3.50;;;16.00;99.90;;;;;;5093524;28;20032;-70
2023/05/14 07:06:14;;;;;;;6.97;3.20;;;16.90;99.90;;;;;;5086195;28;20415;-71
2023/05/14 07:08:40;;;;;;;5.93;3.00;;;17.70;99.90;;;;;;5086487;28;20119;-71
2023/05/14 07:11:06;;;;;;;3.75;2.45;;;18.40;99.90;;;;;;5084798;28;20097;-71
2023/05/14 07:13:31;;;;;;;5.22;2.55;;;19.10;99.90;;;;;;5088317;28;20032;-72
2023/05/14 07:15:57;;;;;;;6.25;2.20;;;19.80;99.90;;;;;;5098352;27;20058;-72
2023/05/14 07:18:23;;;;;;;8.48;2.75;;;20.60;99.90;;;;;;5099663;27;20092;-71
2023/05/14 07:20:48;;;;;;;5.15;1.90;;;21.40;99.90;;;;;;5100697;27;20039;-73
2023/05/14 07:23:14;;;;;;;8.35;2.53;;;22.10;99.90;;;;;;5099794;28;20031;-71
2023/05/14 07:25:45;;;;;;;2.80;1.70;;;22.50;99.90;;;;;;5089011;28;20043;-72
2023/05/14 07:28:11;;;;;;;5.03;2.03;;;22.50;99.90;;;;;;5090473;28;20028;-70
2023/05/14 07:30:37;;;;;;;7.05;2.22;;;22.50;99.90;;;;;;5091252;28;20043;-72
2023/05/14 07:33:02;;;;;;;5.55;2.35;;;22.50;99.90;;;;;;5098538;28;20031;-72
2023/05/14 07:35:28;;;;;;;3.38;1.50;;;22.90;99.90;;;;;;5091435;28;20040;-71
2023/05/14 07:37:53;;;;;;;9.07;2.25;;;22.60;99.90;;;;;;5090623;28;20031;-72
2023/05/14 07:40:23;;;;;;;4.93;1.75;;;22.50;99.90;;;;;;5093696;28;20655;-71
2023/05/14 07:42:49;;;;;;;;;;;21.90;99.90;;;;;;5093847;28;20024;-71
2023/05/14 07:45:15;;;;;;;6.20;1.52;;;21.40;99.90;;;;;;5090362;28;19930;-71
2023/05/14 07:47:41;;;;;;;4.30;1.83;;;21.10;99.90;;;;;;5089777;28;20028;-70
2023/05/14 07:50:10;;;;;;;7.18;2.00;;;21.00;99.90;;;;;;5090435;28;20028;-70
2023/05/14 07:52:35;;;;;;;3.88;1.70;;;20.80;99.90;;;;;;5096217;28;20024;-71
2023/05/14 07:55:02;;;;;;;4.53;2.08;;;20.40;99.90;;;;;;5088363;28;20056;-71
2023/05/14 07:57:28;;;;;;;5.07;1.55;;;20.20;99.90;;;;;;5088672;28;20044;-71
2023/05/14 07:59:53;;;;;;;5.10;1.58;;;20.10;99.90;;;;;;5091840;27;20032;-72
2023/05/14 08:02:19;;;;;;;6.25;1.52;;;19.90;99.90;;;;;;5093290;28;20048;-72
2023/05/14 08:04:45;;;;;;;5.50;1.60;;;19.60;99.90;;;;;;5096129;28;20107;-70
2023/05/14 08:07:10;;;;;;;6.70;1.48;;;19.40;99.90;;;;;;5089313;28;20039;-70
2023/05/14 08:09:36;;;;;;;4.80;1.75;;;19.10;99.90;;;;;;5092110;28;20115;-71
2023/05/14 08:12:02;;;;;;;5.85;1.63;;;19.00;99.90;;;;;;5087758;28;20484;-71
2023/05/14 08:14:28;;;;;;;9.98;2.05;;;19.00;99.90;;;;;;5088315;28;20701;-71
2023/05/14 08:16:53;;;;;;;3.72;1.30;;;18.70;99.90;;;;;;5091353;28;20040;-72
2023/05/14 08:19:19;;;;;;;10.30;3.00;;;18.60;99.90;;;;;;5094081;28;20399;-71
2023/05/14 08:21:47;;;;;;;12.02;1.73;;;18.50;99.90;;;;;;5094637;28;20044;-72
2023/05/14 08:24:13;;;;;;;8.57;2.40;;;18.50;99.90;;;;;;5089688;28;20042;-72
2023/05/14 08:26:45;;;;;;;5.40;1.55;;;18.50;99.90;;;;;;5091504;28;20028;-72
2023/05/14 08:29:11;;;;;;;4.72;1.70;;;18.60;99.90;;;;;;5094215;28;20085;-70
2023/05/14 08:31:36;;;;;;;12.95;2.60;;;18.70;99.90;;;;;;5088578;28;20445;-70
2023/05/14 08:34:02;;;;;;;8.82;2.75;;;18.70;99.90;;;;;;5092313;28;20024;-70
2023/05/14 08:36:31;;;;;;;7.15;2.05;;;18.70;99.90;;;;;;5091253;28;20039;-70
2023/05/14 08:38:57;;;;;;;7.63;2.03;;;18.70;99.90;;;;;;5089944;28;20036;-72
2023/05/14 08:41:22;;;;;;;3.63;1.70;;;18.60;99.90;;;;;;5089562;28;20032;-71
2023/05/14 08:44:08;;;;;;;5.25;1.67;;;18.70;99.90;;;;;;5096023;27;20107;-72
2023/05/14 08:46:40;;;;;;;8.18;2.50;;;18.80;99.90;;;;;;5090774;28;20032;-72
2023/05/14 08:49:27;;;;;;;11.80;2.88;;;18.70;99.90;;;;;;5092769;28;20130;-70
2023/05/14 08:51:53;;;;;;;7.85;1.60;;;18.90;99.90;;;;;;5089393;28;20038;-72
2023/05/14 08:54:21;;;;;;;6.28;1.80;;;18.80;99.90;;;;;;5094604;28;20036;-73
2023/05/14 08:56:51;;;;;;;8.38;1.80;;;18.60;99.90;;;;;;5095424;28;20504;-70
2023/05/14 08:59:16;;;;;;;5.75;1.77;;;18.60;99.90;;;;;;5087919;28;20111;-70
2023/05/14 09:01:52;;;;;;;4.30;1.45;;;18.70;99.90;;;;;;5094579;28;20107;-72
2023/05/14 09:04:23;;;;;;;7.18;2.13;;;18.80;99.90;;;;;;5094224;28;20032;-72
2023/05/14 09:06:55;;;;;;;;;;;18.90;99.90;;;;;;5092022;28;20040;-71
2023/05/14 09:09:22;;;;;;;5.47;2.35;;;19.00;99.90;;;;;;5087835;28;19922;-71
2023/05/14 09:11:51;;;;;;;6.20;1.75;;;19.00;99.90;;;;;;5093101;28;20059;-71
2023/05/14 09:14:21;;;;;;;5.32;1.92;;;19.00;99.90;;;;;;5089378;28;20040;-72
2023/05/14 09:16:48;;;;;;;7.03;1.57;;;19.10;99.90;;;;;;5093543;28;20419;-69
2023/05/14 09:19:14;;;;;;;5.80;1.85;;;19.20;99.90;;;;;;5092961;28;20285;-71
2023/05/14 09:21:44;;;;;;;13.48;2.05;;;19.30;99.90;;;;;;5090637;28;20085;-71
2023/05/14 09:24:20;;;;;;;;;;;19.40;99.90;;;;;;5093275;27;20038;-70
2023/05/14 09:26:49;;;;;;;4.43;1.88;;;19.40;99.90;;;;;;5099001;28;19920;-70
2023/05/14 09:29:18;;;;;;;3.78;1.52;;;19.50;99.90;;;;;;5096068;27;20093;-69
2023/05/14 09:31:44;;;;;;;5.78;1.60;;;19.60;99.90;;;;;;5098124;28;20434;-69
2023/05/14 09:34:25;;;;;;;5.63;1.80;;;19.70;99.90;;;;;;5092989;28;20039;-69
2023/05/14 09:37:02;;;;;;;6.47;1.75;;;19.80;99.90;;;;;;5090413;28;20046;-68
2023/05/14 09:39:32;;;;;;;8.18;2.40;;;19.70;99.90;;;;;;5127468;27;20032;-69
2023/05/14 09:41:57;;;;;;;4.18;1.70;;;19.60;99.90;;;;;;5094868;28;20028;-71
2023/05/14 09:44:30;;;;;;;4.88;1.90;;;19.60;99.90;;;;;;5096096;28;20098;-70
2023/05/14 09:46:56;;;;;;;7.40;1.90;;;19.60;99.90;;;;;;5084607;28;20043;-71
2023/05/14 09:49:22;;;;;;;10.05;3.05;;;19.60;99.90;;;;;;5092618;28;20047;-71
2023/05/14 09:51:48;;;;;;;4.10;2.03;;;19.60;99.90;;;;;;5095694;27;20040;-71
2023/05/14 09:54:14;;;;;;;5.75;1.70;;;19.50;99.90;;;;;;5093402;28;20092;-71
2023/05/14 09:56:51;;;;;;;5.93;1.95;;;19.40;99.90;;;;;;5090742;28;20028;-72
2023/05/14 09:59:17;;;;;;;7.28;1.80;;;19.60;99.90;;;;;;5091393;28;20428;-72
2023/05/14 10:01:46;;;;;;;4.00;1.60;;;19.70;99.90;;;;;;5089196;28;20032;-70
2023/05/14 10:04:12;;;;;;;8.68;1.50;;;19.80;99.90;;;;;;5094134;28;20308;-71
2023/05/14 10:06:40;;;;;;;8.65;2.22;;;19.90;99.90;;;;;;5089407;28;20032;-72
2023/05/14 10:09:15;;;;;;;6.10;1.90;;;20.10;99.90;;;;;;5090178;28;20029;-72
2023/05/14 10:11:48;;;;;;;8.45;1.70;;;20.10;99.90;;;;;;5090444;28;20436;-71
2023/05/14 10:14:34;;;;;;;5.85;1.98;;;20.10;99.90;;;;;;5089931;28;20074;-70
2023/05/14 10:17:01;;;;;;;9.13;2.15;;;20.20;99.90;;;;;;5086406;28;20035;-72
2023/05/14 10:19:34;;;;;;;6.13;1.70;;;20.30;99.90;;;;;;5092454;28;20040;-71
2023/05/14 10:22:05;;;;;;;9.52;1.63;;;20.20;99.90;;;;;;5096897;27;20368;-72
2023/05/14 10:24:45;;;;;;;3.92;1.40;;;20.20;99.90;;;;;;5091317;28;20412;-72
2023/05/14 10:27:14;;;;;;;8.15;1.45;;;20.10;99.90;;;;;;5091689;28;20032;-72
2023/05/14 10:29:53;;;;;;;6.40;2.75;;;20.20;99.90;;;;;;5091449;28;20032;-73
2023/05/14 10:32:31;;;;;;;3.97;1.65;;;20.10;99.90;;;;;;5092119;28;20047;-70
2023/05/14 10:34:57;;;;;;;4.47;1.52;;;20.10;99.90;;;;;;5093691;28;20043;-71
2023/05/14 10:37:25;;;;;;;5.25;1.45;;;20.10;99.90;;;;;;5091831;28;20048;-72
2023/05/14 10:39:58;;;;;;;7.25;2.15;;;20.10;99.90;;;;;;5087476;28;20020;-71
2023/05/14 10:42:26;;;;;;;5.05;1.80;;;20.10;99.90;;;;;;5090321;28;20093;-70
2023/05/14 10:44:57;;;;;;;5.10;1.38;;;20.20;99.90;;;;;;5086032;28;20088;-72
2023/05/14 10:47:30;;;;;;;6.63;1.20;;;20.20;99.90;;;;;;5125696;27;20032;-72
2023/05/14 10:49:58;;;;;;;4.25;1.42;;;20.30;99.90;;;;;;5090587;28;20096;-71
2023/05/14 10:52:25;;;;;;;3.53;1.23;;;20.40;99.90;;;;;;5092186;28;20028;-70
2023/05/14 10:54:52;;;;;;;8.27;1.70;;;20.40;99.90;;;;;;5093442;28;20072;-72
2023/05/14 10:57:23;;;;;;;5.32;1.85;;;20.40;99.90;;;;;;5088511;28;20464;-72
2023/05/14 10:59:53;;;;;;;5.70;2.00;;;20.50;99.90;;;;;;5086664;28;20024;-71
2023/05/14 11:02:27;;;;;;;8.05;1.25;;;20.40;99.90;;;;;;5084281;28;20036;-72
2023/05/14 11:05:04;;;;;;;6.55;2.15;;;20.50;99.90;;;;;;5087680;28;20122;-71
2023/05/14 11:07:46;;;;;;;6.80;1.85;;;20.60;99.90;;;;;;5090676;28;20036;-71
2023/05/14 11:10:17;;;;;;;6.18;1.50;;;20.50;99.90;;;;;;5092125;28;20028;-70
2023/05/14 11:12:45;;;;;;;5.07;1.67;;;20.50;99.90;;;;;;5090583;28;20067;-71
2023/05/14 11:15:13;;;;;;;7.07;1.95;;;20.40;99.90;;;;;;5094195;28;20023;-71
2023/05/14 11:17:40;;;;;;;7.82;1.77;;;20.40;99.90;;;;;;5093194;28;20399;-71
2023/05/14 11:20:06;;;;;;;3.92;1.35;;;20.40;99.90;;;;;;5091483;28;20474;-71
2023/05/14 11:22:33;;;;;;;5.85;1.42;;;20.40;99.90;;;;;;5094206;28;20028;-72
2023/05/14 11:24:58;;;;;;;4.40;1.33;;;20.50;99.90;;;;;;5094665;28;20585;-71
2023/05/14 11:27:25;;;;;;;4.88;1.60;;;20.60;99.90;;;;;;5091313;28;20035;-71
2023/05/14 11:29:51;;;;;;;3.25;1.10;;;20.70;99.90;;;;;;5091153;28;20024;-72
2023/05/14 11:32:18;;;;;;;3.97;1.50;;;20.60;99.90;;;;;;5093957;28;20051;-72
2023/05/14 11:34:44;;;;;;;5.18;2.28;;;20.60;99.90;;;;;;5091361;28;20028;-69
2023/05/14 11:37:11;;;;;;;6.57;1.50;;;20.70;99.90;;;;;;5092433;28;20048;-71
2023/05/14 11:39:38;;;;;;;7.63;2.15;;;20.60;99.90;;;;;;5091042;28;20036;-71
2023/05/14 11:42:15;;;;;;;7.22;1.98;;;20.60;99.90;;;;;;5091968;28;20388;-72
2023/05/14 11:44:43;;;;;;;6.68;1.77;;;20.70;99.90;;;;;;5096037;28;20110;-71
2023/05/14 11:47:09;;;;;;;7.07;1.75;;;20.70;99.90;;;;;;5089513;28;20071;-71
2023/05/14 11:49:36;;;;;;;6.35;2.15;;;20.70;99.90;;;;;;5091327;28;20052;-73
2023/05/14 11:52:04;;;;;;;4.82;1.80;;;20.70;99.90;;;;;;5094253;28;20038;-72
2023/05/14 11:54:31;;;;;;;6.88;1.73;;;20.70;99.90;;;;;;5093158;28;20036;-70
2023/05/14 11:56:59;;;;;;;5.15;1.30;;;20.60;99.70;;;;;;5089886;28;20157;-69
2023/05/14 11:59:31;;;;;;;5.85;1.30;;;20.50;99.70;;;;;;5092227;28;20653;-73
2023/05/14 12:01:58;;;;;;;10.57;1.92;;;20.50;99.90;;;;;;5094326;28;20056;-70
2023/05/14 12:04:24;;;;;;;2.75;1.33;;;20.40;99.80;;;;;;5099666;28;20084;-70
2023/05/14 12:06:51;;;;;;;4.97;1.40;;;20.50;98.90;;;;;;5101304;28;20123;-71
2023/05/14 12:09:19;;;;;;;3.55;1.25;;;20.60;99.10;;;;;;5097349;27;20088;-70
2023/05/14 12:11:50;;;;;;;5.40;1.23;;;20.60;97.20;;;;;;5090580;28;20028;-72
2023/05/14 12:14:20;;;;;;;7.05;1.60;;;20.60;98.20;;;;;;5094369;28;20492;-72
2023/05/14 12:16:50;;;;;;;3.33;1.10;;;20.60;98.20;;;;;;5125387;27;20032;-71
2023/05/14 12:19:22;;;;;;;5.10;1.30;;;20.70;98.70;;;;;;5090179;27;20028;-72
2023/05/14 12:21:53;;;;;;;5.25;1.23;;;20.70;98.60;;;;;;5092912;28;20875;-71
2023/05/14 12:24:19;;;;;;;3.97;1.48;;;20.70;97.80;;;;;;5093901;28;20036;-71
2023/05/14 12:26:49;;;;;;;6.93;1.45;;;20.80;97.00;;;;;;5094827;28;20039;-71
2023/05/14 12:29:15;;;;;;;3.55;1.15;;;20.80;98.40;;;;;;5093862;28;20031;-71
2023/05/14 12:31:49;;;;;;;5.95;0.98;;;20.80;97.90;;;;;;5095007;28;20044;-71
2023/05/14 12:34:17;;;;;;;4.90;1.02;;;20.80;96.80;;;;;;5090026;28;20119;-70
2023/05/14 12:36:43;;;;;;;5.03;1.63;;;20.80;97.90;;;;;;5090646;28;20028;-70
2023/05/14 12:39:10;;;;;;;5.53;1.60;;;20.80;98.20;;;;;;5090906;28;20034;-69
2023/05/14 12:41:35;;;;;;;7.05;1.38;;;20.90;97.90;;;;;;5099703;28;20032;-72
2023/05/14 12:44:04;;;;;;;7.63;1.33;;;20.90;97.80;;;;;;5091453;28;20040;-71
2023/05/14 12:46:31;;;;;;;6.15;1.73;;;20.80;97.70;;;;;;5096911;28;20097;-70